createdAt,value
2023-04-08T00:02:07.202Z,6.6
2023-04-08T00:14:06.982Z,6.6
2023-04-08T00:26:07.067Z,6.5
2023-04-08T00:38:06.989Z,6.5
2023-04-08T00:50:07.080Z,6.4
2023-04-08T01:02:07.174Z,6.4
2023-04-08T01:14:07.079Z,6.4
2023-04-08T01:26:06.995Z,6.4
2023-04-08T01:38:07.246Z,6.4
2023-04-08T01:50:07.085Z,6.4
2023-04-08T02:02:07.172Z,6.4
2023-04-08T02:14:07.113Z,6.3
2023-04-08T02:26:06.978Z,6.4
2023-04-08T02:38:07.005Z,6.3
2023-04-08T02:50:07.089Z,6.3
2023-04-08T03:02:07.201Z,6.3
2023-04-08T03:14:07.091Z,6.3
2023-04-08T03:26:07.003Z,6.3
2023-04-08T03:38:07.030Z,6.3
2023-04-08T03:50:07.110Z,6.2
2023-04-08T04:02:07.112Z,6.1
2023-04-08T04:14:06.991Z,5.9
2023-04-08T04:26:07.818Z,5.8
2023-04-08T04:38:07.018Z,5.7
2023-04-08T04:50:06.976Z,5.6
2023-04-08T05:02:07.209Z,5.5
2023-04-08T05:14:07.085Z,5.5
2023-04-08T05:26:07.001Z,5.4
2023-04-08T05:38:07.095Z,5.5
2023-04-08T05:50:06.992Z,5.5
2023-04-08T06:02:07.151Z,5.6
2023-04-08T06:14:07.150Z,5.7
2023-04-08T06:26:07.084Z,5.8
2023-04-08T06:38:07.066Z,5.8
2023-04-08T06:50:07.040Z,5.8
2023-04-08T07:02:06.997Z,5.9
2023-04-08T07:14:07.033Z,6.4
2023-04-08T07:26:07.037Z,6.4
2023-04-08T07:38:07.077Z,6.9
2023-04-08T07:50:06.985Z,7.2
2023-04-08T08:02:07.057Z,6.9
2023-04-08T08:14:07.066Z,7.2
2023-04-08T08:26:07.119Z,7.1
2023-04-08T08:38:07.074Z,7.4
2023-04-08T08:50:07.032Z,7.4
2023-04-08T09:02:07.197Z,7.6
2023-04-08T09:14:07.119Z,7.7
2023-04-08T09:26:07.072Z,7.8
2023-04-08T09:38:07.048Z,8.1
2023-04-08T09:50:07.079Z,7.9
2023-04-08T10:02:07.220Z,7.9
2023-04-08T10:14:07.119Z,7.9
2023-04-08T10:26:06.990Z,8.1
2023-04-08T10:38:07.084Z,7.9
2023-04-08T10:50:06.966Z,8.1
2023-04-08T11:02:07.268Z,8.4
2023-04-08T11:14:07.044Z,8.2
2023-04-08T11:26:07.091Z,8.1
2023-04-08T11:38:07.013Z,7.9
2023-04-08T11:50:07.099Z,8.1
2023-04-08T12:02:07.064Z,8.2
2023-04-08T12:14:07.097Z,8.4
2023-04-08T12:26:07.106Z,8.6
2023-04-08T12:38:07.116Z,8.5
2023-04-08T12:50:07.045Z,9.0
2023-04-08T13:02:07.209Z,9.2
2023-04-08T13:14:07.102Z,9.3
2023-04-08T13:26:07.135Z,9.3
2023-04-08T13:38:07.045Z,9.0
2023-04-08T13:50:07.148Z,8.9
2023-04-08T14:02:07.081Z,9.1
2023-04-08T14:14:07.091Z,9.2
2023-04-08T14:26:07.070Z,9.5
2023-04-08T14:38:07.092Z,9.5
2023-04-08T14:50:06.981Z,9.3
2023-04-08T15:02:07.282Z,9.7
2023-04-08T15:14:07.003Z,9.6
2023-04-08T15:26:07.008Z,9.6
2023-04-08T15:38:07.094Z,9.6
2023-04-08T15:50:07.084Z,9.8
2023-04-08T16:02:07.097Z,9.7
2023-04-08T16:14:07.105Z,9.7
2023-04-08T16:26:07.087Z,9.8
2023-04-08T16:38:07.135Z,9.7
2023-04-08T16:50:06.977Z,9.8
2023-04-08T17:02:07.068Z,9.8
2023-04-08T17:14:07.466Z,9.7
2023-04-08T17:26:07.067Z,9.5
2023-04-08T17:38:07.061Z,9.5
2023-04-08T17:50:07.132Z,9.3
2023-04-08T18:02:07.051Z,9.3
2023-04-08T18:14:06.986Z,9.2
2023-04-08T18:26:07.016Z,9.1
2023-04-08T18:38:07.047Z,9.0
2023-04-08T18:50:07.596Z,9.0
2023-04-08T19:02:07.214Z,8.9
2023-04-08T19:14:06.999Z,8.8
2023-04-08T19:26:07.092Z,8.9
2023-04-08T19:38:06.992Z,8.7
2023-04-08T19:50:07.083Z,8.6
2023-04-08T20:02:07.086Z,8.5
2023-04-08T20:14:07.105Z,8.2
2023-04-08T20:26:07.059Z,8.0
2023-04-08T20:38:07.104Z,7.9
2023-04-08T20:50:07.060Z,7.6
2023-04-08T21:02:07.194Z,7.4
2023-04-08T21:14:07.112Z,7.4
2023-04-08T21:26:07.087Z,6.9
2023-04-08T21:38:07.056Z,6.5
2023-04-08T21:50:07.073Z,6.4
2023-04-08T22:02:08.286Z,6.3
2023-04-08T22:14:06.998Z,6.3
2023-04-08T22:26:07.068Z,6.0
2023-04-08T22:38:07.062Z,6.2
2023-04-08T22:50:07.080Z,6.4
2023-04-08T23:02:07.123Z,6.4
2023-04-08T23:14:06.983Z,6.6
2023-04-08T23:26:07.107Z,6.6
2023-04-08T23:38:07.104Z,6.1
2023-04-08T23:50:07.045Z,6.0
